createdAt,value
2023-04-18T00:01:52.878Z,8.48
2023-04-18T00:04:54.990Z,8.46
2023-04-18T00:07:56.826Z,8.43
2023-04-18T00:10:58.785Z,8.40
2023-04-18T00:14:00.846Z,8.38
2023-04-18T00:17:02.939Z,8.32
2023-04-18T00:20:07.155Z,8.27
2023-04-18T00:23:09.914Z,8.23
2023-04-18T00:26:13.262Z,8.18
2023-04-18T00:29:16.048Z,8.16
2023-04-18T00:32:18.488Z,8.13
2023-04-18T00:35:20.434Z,8.11
2023-04-18T00:38:22.260Z,8.07
2023-04-18T00:41:27.675Z,7.99
2023-04-18T00:44:30.871Z,8.00
2023-04-18T00:47:32.858Z,7.94
2023-04-18T00:50:37.228Z,7.98
2023-04-18T00:53:41.106Z,7.96
2023-04-18T00:56:43.120Z,7.97
2023-04-18T00:59:46.796Z,7.93
2023-04-18T01:02:53.186Z,7.93
2023-04-18T01:05:55.664Z,7.93
2023-04-18T01:08:57.667Z,7.93
2023-04-18T01:12:00.128Z,7.91
2023-04-18T01:15:03.962Z,7.88
2023-04-18T01:18:07.768Z,7.92
2023-04-18T01:21:10.009Z,7.91
2023-04-18T01:24:16.741Z,7.93
2023-04-18T01:27:18.789Z,7.88
2023-04-18T01:30:20.778Z,7.86
2023-04-18T01:33:22.960Z,7.82
2023-04-18T01:36:24.966Z,7.81
2023-04-18T01:39:26.865Z,7.79
2023-04-18T01:42:30.126Z,7.78
2023-04-18T01:45:31.994Z,7.77
2023-04-18T01:48:33.912Z,7.73
2023-04-18T01:51:36.363Z,7.74
2023-04-18T01:54:38.197Z,7.70
2023-04-18T01:57:40.081Z,7.67
2023-04-18T02:00:42.041Z,7.66
2023-04-18T02:03:44.046Z,7.64
2023-04-18T02:06:47.946Z,7.66
2023-04-18T02:09:50.116Z,7.68
2023-04-18T02:12:52.091Z,7.71
2023-04-18T02:15:54.634Z,7.68
2023-04-18T02:18:56.616Z,7.68
2023-04-18T02:21:58.529Z,7.70
2023-04-18T02:25:00.444Z,7.72
2023-04-18T02:28:02.674Z,7.73
2023-04-18T02:31:07.431Z,7.72
2023-04-18T02:34:09.645Z,7.69
2023-04-18T02:37:11.627Z,7.65
2023-04-18T02:40:15.434Z,7.59
2023-04-18T02:43:17.327Z,7.57
2023-04-18T02:46:19.450Z,7.51
2023-04-18T02:49:23.467Z,7.48
2023-04-18T02:52:26.114Z,7.46
2023-04-18T02:55:28.147Z,7.40
2023-04-18T02:58:35.897Z,7.39
2023-04-18T03:02:01.023Z,7.37
2023-04-18T03:05:03.588Z,7.39
2023-04-18T03:08:05.934Z,7.39
2023-04-18T03:11:09.078Z,7.38
2023-04-18T03:14:11.862Z,7.42
2023-04-18T03:17:24.173Z,7.44
2023-04-18T03:20:27.173Z,7.46
2023-04-18T03:23:29.116Z,7.40
2023-04-18T03:26:31.689Z,7.41
2023-04-18T03:29:33.797Z,7.45
2023-04-18T03:32:36.767Z,7.50
2023-04-18T03:35:38.911Z,7.50
2023-04-18T03:38:41.885Z,7.53
2023-04-18T03:41:45.230Z,7.54
2023-04-18T03:44:47.734Z,7.57
2023-04-18T03:47:49.796Z,7.62
2023-04-18T03:50:52.258Z,7.60
2023-04-18T03:53:54.972Z,7.62
2023-04-18T03:56:59.516Z,7.63
2023-04-18T04:00:02.228Z,7.70
2023-04-18T04:03:18.056Z,7.66
2023-04-18T04:06:21.787Z,7.72
2023-04-18T04:09:23.759Z,7.78
2023-04-18T04:12:26.113Z,7.85
2023-04-18T04:15:28.578Z,7.90
2023-04-18T04:18:37.382Z,7.95
2023-04-18T04:21:39.368Z,8.05
2023-04-18T04:24:46.849Z,8.06
2023-04-18T04:27:53.720Z,8.14
2023-04-18T04:30:57.972Z,8.18
2023-04-18T04:33:59.910Z,8.27
2023-04-18T04:37:01.812Z,8.30
2023-04-18T04:40:09.272Z,8.32
2023-04-18T04:43:28.877Z,8.34
2023-04-18T04:46:32.647Z,8.40
2023-04-18T04:49:35.932Z,8.51
2023-04-18T04:52:40.276Z,8.52
2023-04-18T04:55:42.064Z,8.51
2023-04-18T04:58:45.221Z,8.61
2023-04-18T05:01:51.985Z,8.58
2023-04-18T05:04:53.859Z,8.62
2023-04-18T05:07:55.676Z,8.64
2023-04-18T05:10:57.533Z,8.62
2023-04-18T05:13:59.718Z,8.60
2023-04-18T05:17:01.720Z,8.61
2023-04-18T05:20:04.951Z,8.59
2023-04-18T05:23:06.818Z,8.68
2023-04-18T05:26:08.733Z,8.75
2023-04-18T05:29:10.643Z,8.82
2023-04-18T05:32:12.572Z,8.96
2023-04-18T05:35:14.695Z,9.09
2023-04-18T05:38:16.575Z,9.23
2023-04-18T05:41:18.459Z,9.27
2023-04-18T05:44:20.855Z,9.56
2023-04-18T05:47:24.248Z,9.80
2023-04-18T05:50:26.216Z,10.09
2023-04-18T05:53:28.026Z,10.26
2023-04-18T05:56:30.693Z,10.26
2023-04-18T05:59:32.612Z,10.34
2023-04-18T06:02:34.660Z,10.41
2023-04-18T06:05:36.816Z,10.54
2023-04-18T06:08:39.372Z,10.53
2023-04-18T06:11:41.207Z,10.63
2023-04-18T06:14:43.043Z,10.89
2023-04-18T06:17:44.977Z,11.06
2023-04-18T06:20:46.947Z,11.17
2023-04-18T06:23:48.823Z,11.38
2023-04-18T06:26:50.840Z,11.60
2023-04-18T06:29:52.675Z,11.69
2023-04-18T06:32:54.702Z,11.88
2023-04-18T06:35:56.959Z,11.81
2023-04-18T06:38:58.870Z,11.80
2023-04-18T06:42:02.456Z,11.86
2023-04-18T06:45:06.497Z,11.83
2023-04-18T06:48:09.248Z,11.79
2023-04-18T06:51:11.218Z,11.81
2023-04-18T06:54:13.231Z,11.85
2023-04-18T06:57:15.929Z,11.92
2023-04-18T07:00:18.053Z,12.00
2023-04-18T07:03:20.052Z,12.14
2023-04-18T07:06:22.241Z,12.18
2023-04-18T07:09:24.197Z,12.70
2023-04-18T07:12:26.132Z,13.18
2023-04-18T07:15:28.173Z,13.64
2023-04-18T07:18:37.201Z,14.09
2023-04-18T07:21:42.660Z,14.32
2023-04-18T07:24:44.514Z,14.78
2023-04-18T07:27:47.531Z,14.97
2023-04-18T07:30:50.342Z,15.33
2023-04-18T07:33:52.119Z,15.77
2023-04-18T07:36:54.049Z,15.60
2023-04-18T07:39:55.880Z,15.45
2023-04-18T07:42:57.793Z,15.58
2023-04-18T07:45:59.905Z,15.63
2023-04-18T07:49:04.751Z,15.83
2023-04-18T07:52:08.180Z,15.50
2023-04-18T07:55:10.144Z,15.55
2023-04-18T07:58:12.266Z,15.98
2023-04-18T08:01:15.354Z,16.26
2023-04-18T08:04:17.508Z,16.20
2023-04-18T08:07:19.660Z,16.18
2023-04-18T08:10:23.737Z,16.04
2023-04-18T08:13:25.880Z,16.06
2023-04-18T08:16:28.720Z,15.84
2023-04-18T08:19:30.663Z,15.81
2023-04-18T08:22:33.236Z,15.66
2023-04-18T08:25:36.556Z,15.45
2023-04-18T08:28:38.674Z,15.49
2023-04-18T08:31:40.724Z,15.59
2023-04-18T08:34:42.533Z,16.01
2023-04-18T08:37:44.470Z,16.46
2023-04-18T08:40:46.748Z,16.70
2023-04-18T08:43:49.139Z,16.89
2023-04-18T08:46:52.635Z,17.06
2023-04-18T08:49:55.460Z,17.17
2023-04-18T08:52:59.251Z,17.39
2023-04-18T08:56:01.645Z,17.74
2023-04-18T08:59:04.111Z,18.09
2023-04-18T09:02:09.026Z,18.09
2023-04-18T09:05:16.602Z,17.86
2023-04-18T09:08:25.869Z,17.96
2023-04-18T09:11:30.209Z,18.30
2023-04-18T09:14:32.766Z,18.28
2023-04-18T09:17:46.205Z,18.53
2023-04-18T09:20:49.939Z,18.58
2023-04-18T09:24:15.866Z,18.46
2023-04-18T09:27:17.737Z,18.17
2023-04-18T09:30:34.403Z,18.36
2023-04-18T09:33:37.156Z,18.01
2023-04-18T09:36:39.071Z,17.79
2023-04-18T09:39:43.864Z,17.70
2023-04-18T09:42:46.713Z,17.71
2023-04-18T09:45:49.171Z,17.96
2023-04-18T09:48:50.988Z,18.24
2023-04-18T09:51:54.579Z,18.55
2023-04-18T09:55:00.117Z,18.85
2023-04-18T09:58:04.187Z,19.12
2023-04-18T10:01:06.410Z,19.37
2023-04-18T10:04:10.424Z,19.29
2023-04-18T10:07:13.117Z,19.27
2023-04-18T10:10:15.972Z,19.07
2023-04-18T10:13:19.271Z,18.89
2023-04-18T10:16:21.486Z,18.67
2023-04-18T10:19:25.323Z,18.44
2023-04-18T10:22:28.173Z,18.34
2023-04-18T10:25:39.243Z,18.24
2023-04-18T10:28:58.585Z,18.60
2023-04-18T10:32:06.471Z,18.64
2023-04-18T10:35:08.626Z,19.16
2023-04-18T10:38:17.327Z,19.59
2023-04-18T10:41:27.359Z,19.74
2023-04-18T10:44:29.230Z,19.79
2023-04-18T10:47:31.369Z,19.83
2023-04-18T10:50:33.564Z,19.81
2023-04-18T10:53:35.384Z,19.81
2023-04-18T10:56:37.727Z,19.82
2023-04-18T10:59:44.186Z,19.38
2023-04-18T11:02:57.576Z,18.72
2023-04-18T11:06:03.612Z,18.30
2023-04-18T11:09:10.434Z,18.08
2023-04-18T11:12:12.264Z,17.73
2023-04-18T11:15:21.699Z,17.76
2023-04-18T11:18:24.102Z,17.82
2023-04-18T11:21:30.840Z,17.81
2023-04-18T11:24:34.110Z,17.88
2023-04-18T11:27:35.956Z,17.76
2023-04-18T11:30:39.341Z,18.19
2023-04-18T11:33:41.191Z,18.65
2023-04-18T11:36:43.228Z,18.87
2023-04-18T11:39:45.114Z,19.03
2023-04-18T11:42:46.997Z,19.12
2023-04-18T11:45:56.536Z,19.33
2023-04-18T11:48:58.422Z,19.54
2023-04-18T11:52:01.372Z,19.45
2023-04-18T11:55:27.368Z,19.39
2023-04-18T11:58:36.426Z,19.31
2023-04-18T12:01:38.360Z,19.15
2023-04-18T12:05:00.274Z,19.07
2023-04-18T12:11:41.659Z,18.77
2023-04-18T12:14:43.889Z,18.76
2023-04-18T12:17:48.624Z,18.76
2023-04-18T12:20:54.127Z,18.43
2023-04-18T12:23:58.643Z,18.51
2023-04-18T12:27:00.552Z,18.66
2023-04-18T12:30:02.394Z,18.75
2023-04-18T12:33:04.966Z,18.91
2023-04-18T12:36:08.640Z,18.85
2023-04-18T12:39:10.816Z,18.79
2023-04-18T12:42:12.747Z,18.85
2023-04-18T12:45:16.166Z,18.92
2023-04-18T12:48:18.132Z,18.79
2023-04-18T12:51:20.173Z,18.49
2023-04-18T12:54:22.175Z,18.40
2023-04-18T12:57:26.113Z,18.42
2023-04-18T13:00:32.691Z,18.35
2023-04-18T13:03:34.916Z,18.07
2023-04-18T13:06:37.818Z,17.95
2023-04-18T13:09:39.638Z,17.98
2023-04-18T13:12:41.659Z,17.94
2023-04-18T13:15:43.583Z,18.05
2023-04-18T13:18:45.437Z,18.19
2023-04-18T13:21:49.120Z,18.31
2023-04-18T13:24:51.735Z,18.46
2023-04-18T13:27:53.671Z,18.74
2023-04-18T13:30:55.560Z,18.69
2023-04-18T13:33:58.349Z,18.41
2023-04-18T13:37:00.432Z,18.20
2023-04-18T13:40:05.467Z,18.15
2023-04-18T13:43:07.379Z,17.83
2023-04-18T13:46:09.430Z,17.67
2023-04-18T13:49:11.587Z,17.48
2023-04-18T13:52:13.447Z,17.34
2023-04-18T13:55:16.233Z,17.19
2023-04-18T13:58:18.120Z,17.09
2023-04-18T14:01:21.164Z,16.97
2023-04-18T14:04:24.337Z,16.86
2023-04-18T14:07:26.307Z,16.80
2023-04-18T14:10:29.089Z,16.65
2023-04-18T14:13:31.204Z,16.44
2023-04-18T14:16:33.739Z,16.24
2023-04-18T14:19:35.468Z,16.15
2023-04-18T14:22:37.354Z,16.09
2023-04-18T14:25:39.252Z,16.09
2023-04-18T14:28:41.159Z,16.06
2023-04-18T14:31:43.130Z,16.01
2023-04-18T14:34:45.197Z,16.02
2023-04-18T14:37:47.087Z,15.99
2023-04-18T14:40:48.945Z,16.09
2023-04-18T14:43:50.810Z,16.14
2023-04-18T14:46:52.745Z,16.20
2023-04-18T14:49:54.601Z,16.26
2023-04-18T14:52:56.519Z,16.29
2023-04-18T14:55:58.376Z,16.21
2023-04-18T14:59:00.467Z,16.23
2023-04-18T15:02:02.475Z,16.06
2023-04-18T15:05:05.081Z,16.04
2023-04-18T15:08:07.075Z,15.93
2023-04-18T15:11:09.559Z,15.75
2023-04-18T15:14:11.430Z,15.73
2023-04-18T15:17:13.344Z,15.66
2023-04-18T15:20:15.250Z,15.62
2023-04-18T15:23:17.235Z,15.55
2023-04-18T15:26:19.091Z,15.40
2023-04-18T15:29:21.056Z,15.42
2023-04-18T15:32:23.353Z,15.48
2023-04-18T15:35:25.480Z,15.53
2023-04-18T15:38:27.345Z,15.50
2023-04-18T15:41:29.215Z,15.43
2023-04-18T15:44:31.186Z,15.37
2023-04-18T15:47:34.157Z,15.38
2023-04-18T15:50:36.645Z,15.32
2023-04-18T15:53:38.535Z,15.33
2023-04-18T15:56:40.413Z,15.20
2023-04-18T15:59:42.265Z,15.13
2023-04-18T16:02:45.254Z,15.05
2023-04-18T16:05:47.825Z,15.05
2023-04-18T16:08:50.650Z,15.00
2023-04-18T16:11:53.390Z,14.87
2023-04-18T16:14:55.126Z,14.87
2023-04-18T16:17:57.396Z,14.85
2023-04-18T16:20:59.476Z,14.68
2023-04-18T16:24:01.444Z,14.70
2023-04-18T16:27:03.763Z,14.64
2023-04-18T16:30:10.038Z,14.54
2023-04-18T16:33:11.910Z,14.50
2023-04-18T16:36:13.868Z,14.43
2023-04-18T16:39:16.229Z,14.44
2023-04-18T16:42:18.119Z,14.34
2023-04-18T16:45:19.971Z,14.29
2023-04-18T16:48:23.219Z,14.15
2023-04-18T16:51:26.232Z,14.13
2023-04-18T16:54:28.126Z,14.03
2023-04-18T16:57:30.001Z,13.93
2023-04-18T17:00:31.940Z,13.80
2023-04-18T17:03:34.512Z,13.79
2023-04-18T17:06:36.576Z,13.70
2023-04-18T17:09:38.403Z,13.64
2023-04-18T17:12:40.248Z,13.58
2023-04-18T17:15:42.991Z,13.57
2023-04-18T17:18:44.761Z,13.50
2023-04-18T17:21:47.190Z,13.45
2023-04-18T17:24:49.034Z,13.43
2023-04-18T17:27:51.148Z,13.33
2023-04-18T17:30:53.164Z,13.30
2023-04-18T17:33:55.004Z,13.25
2023-04-18T17:36:57.057Z,13.22
2023-04-18T17:40:00.496Z,13.15
2023-04-18T17:43:02.388Z,13.07
2023-04-18T17:46:04.482Z,13.01
2023-04-18T17:49:06.416Z,12.94
2023-04-18T17:52:08.310Z,12.88
2023-04-18T17:55:10.117Z,12.83
2023-04-18T17:58:12.073Z,12.77
2023-04-18T18:01:22.126Z,12.72
2023-04-18T18:04:26.544Z,12.68
2023-04-18T18:07:28.936Z,12.61
2023-04-18T18:10:31.515Z,12.59
2023-04-18T18:13:33.430Z,12.54
2023-04-18T18:16:38.833Z,12.54
2023-04-18T18:19:40.685Z,12.51
2023-04-18T18:22:43.186Z,12.50
2023-04-18T18:25:45.080Z,12.49
2023-04-18T18:28:46.901Z,12.47
2023-04-18T18:31:48.889Z,12.41
2023-04-18T18:34:50.823Z,12.45
2023-04-18T18:37:52.626Z,12.43
2023-04-18T18:40:54.551Z,12.40
2023-04-18T18:43:56.541Z,12.38
2023-04-18T18:46:59.785Z,12.36
2023-04-18T18:50:01.682Z,12.35
2023-04-18T18:53:03.670Z,12.29
2023-04-18T18:56:05.965Z,12.24
2023-04-18T18:59:07.831Z,12.22
2023-04-18T19:02:09.836Z,12.19
2023-04-18T19:05:12.869Z,12.14
2023-04-18T19:08:14.897Z,12.10
2023-04-18T19:11:18.317Z,12.09
2023-04-18T19:14:20.434Z,12.01
2023-04-18T19:17:24.783Z,11.96
2023-04-18T19:20:28.811Z,11.94
2023-04-18T19:23:31.383Z,11.90
2023-04-18T19:26:33.211Z,11.87
2023-04-18T19:29:38.182Z,11.81
2023-04-18T19:32:40.218Z,11.78
2023-04-18T19:35:43.167Z,11.75
2023-04-18T19:38:45.042Z,11.70
2023-04-18T19:41:47.145Z,11.71
2023-04-18T19:44:49.078Z,11.66
2023-04-18T19:47:51.055Z,11.64
2023-04-18T19:50:52.955Z,11.58
2023-04-18T19:53:55.700Z,11.52
2023-04-18T19:56:58.781Z,11.48
2023-04-18T20:00:00.712Z,11.45
2023-04-18T20:03:02.759Z,11.38
2023-04-18T20:06:05.889Z,11.34
2023-04-18T20:09:13.281Z,11.30
2023-04-18T20:12:15.416Z,11.29
2023-04-18T20:15:17.350Z,11.21
2023-04-18T20:18:19.255Z,11.16
2023-04-18T20:21:21.154Z,11.12
2023-04-18T20:24:23.932Z,11.06
2023-04-18T20:27:25.728Z,10.98
2023-04-18T20:30:28.089Z,10.92
2023-04-18T20:33:30.172Z,10.85
2023-04-18T20:36:32.028Z,10.80
2023-04-18T20:39:34.014Z,10.74
2023-04-18T20:42:36.825Z,10.71
2023-04-18T20:45:42.946Z,10.63
2023-04-18T20:48:45.016Z,10.60
2023-04-18T20:51:47.874Z,10.57
2023-04-18T20:54:49.663Z,10.53
2023-04-18T20:57:51.478Z,10.49
2023-04-18T21:00:53.398Z,10.46
2023-04-18T21:03:55.517Z,10.42
2023-04-18T21:06:57.974Z,10.39
2023-04-18T21:09:59.744Z,10.38
2023-04-18T21:13:01.641Z,10.33
2023-04-18T21:16:05.323Z,10.27
2023-04-18T21:19:07.251Z,10.25
2023-04-18T21:22:09.249Z,10.21
2023-04-18T21:25:11.188Z,10.17
2023-04-18T21:28:13.013Z,10.12
2023-04-18T21:31:14.941Z,10.08
2023-04-18T21:34:17.085Z,10.04
2023-04-18T21:37:19.115Z,10.02
2023-04-18T21:40:21.089Z,9.98
2023-04-18T21:43:22.958Z,9.95
2023-04-18T21:46:25.519Z,9.91
2023-04-18T21:49:27.487Z,9.91
2023-04-18T21:52:29.466Z,9.87
2023-04-18T21:55:31.316Z,9.84
2023-04-18T21:58:33.606Z,9.86
2023-04-18T22:01:38.267Z,9.83
2023-04-18T22:04:42.900Z,9.81
2023-04-18T22:07:54.899Z,9.79
2023-04-18T22:11:00.361Z,9.78
2023-04-18T22:14:02.165Z,9.75
2023-04-18T22:17:04.938Z,9.71
2023-04-18T22:20:08.435Z,9.65
2023-04-18T22:23:11.396Z,9.67
2023-04-18T22:26:13.126Z,9.63
2023-04-18T22:29:15.011Z,9.60
2023-04-18T22:32:17.091Z,9.60
2023-04-18T22:35:19.190Z,9.56
2023-04-18T22:38:21.054Z,9.57
2023-04-18T22:41:22.899Z,9.55
2023-04-18T22:44:24.784Z,9.56
2023-04-18T22:47:27.098Z,9.54
2023-04-18T22:50:30.278Z,9.50
2023-04-18T22:53:32.581Z,9.50
2023-04-18T22:56:34.434Z,9.47
2023-04-18T22:59:36.563Z,9.44
2023-04-18T23:02:38.569Z,9.40
2023-04-18T23:05:41.332Z,9.34
2023-04-18T23:08:43.139Z,9.32
2023-04-18T23:11:45.696Z,9.27
2023-04-18T23:14:47.941Z,9.26
2023-04-18T23:17:53.050Z,9.22
2023-04-18T23:20:54.860Z,9.20
2023-04-18T23:23:56.691Z,9.20
2023-04-18T23:26:58.549Z,9.18
2023-04-18T23:30:00.581Z,9.16
2023-04-18T23:33:02.603Z,9.14
2023-04-18T23:36:04.732Z,9.12
2023-04-18T23:39:08.543Z,9.09
2023-04-18T23:42:10.444Z,9.11
2023-04-18T23:45:12.466Z,9.12
2023-04-18T23:48:14.518Z,9.11
2023-04-18T23:51:16.399Z,9.12
2023-04-18T23:54:18.287Z,9.09
2023-04-18T23:57:20.221Z,9.08
